Time;durP1;ratioP1;P1;durP2;ratioP2;P2;SDS_P1;SDS_P2;PMS_P1;PMS_P2;Temp;Humidity;BMP_temperature;BMP_pressure;BME280_temperature;BME280_humidity;BME280_pressure;Samples;Min_cycle;Max_cycle;Signal;HPM_P1;HPM_P2
2021/07/11 00:01:41;;;;;;;10.63;6.95;;;;;;;22.55;62.72;100651.84;1816852;79;21330;-58
2021/07/11 00:04:47;;;;;;;7.65;6.45;;;;;;;22.49;62.50;100655.55;1816971;79;21398;-59
2021/07/11 00:07:53;;;;;;;10.08;6.78;;;;;;;22.46;62.16;100649.94;1814134;79;21354;-57
2021/07/11 00:11:00;;;;;;;10.38;6.72;;;;;;;22.46;62.37;100656.91;1816733;79;21342;-57
2021/07/11 00:14:06;;;;;;;12.18;6.90;;;;;;;22.48;62.52;100661.70;1816906;79;21172;-56
2021/07/11 00:17:13;;;;;;;9.63;6.20;;;;;;;22.50;62.95;100660.06;1816681;79;21210;-57
2021/07/11 00:20:21;;;;;;;13.85;6.33;;;;;;;22.49;63.04;100662.53;1816550;79;21236;-57
2021/07/11 00:23:27;;;;;;;11.48;6.65;;;;;;;22.50;63.29;100657.27;1810932;79;21835;-58
2021/07/11 00:26:32;;;;;;;9.03;6.17;;;;;;;22.49;63.48;100656.95;1816247;79;21275;-59
2021/07/11 00:29:37;;;;;;;12.63;6.50;;;;;;;22.49;63.21;100657.81;1816603;79;21339;-59
2021/07/11 00:32:43;;;;;;;12.50;6.20;;;;;;;22.46;62.77;100653.27;1788950;79;21859;-57
2021/07/11 00:35:49;;;;;;;15.75;6.58;;;;;;;22.43;62.79;100646.25;1814692;79;21374;-57
2021/07/11 00:38:56;;;;;;;8.25;5.92;;;;;;;22.46;63.12;100647.68;1816674;79;21335;-56
2021/07/11 00:42:04;;;;;;;7.58;6.37;;;;;;;22.46;63.11;100647.14;1816586;79;21357;-57
2021/07/11 00:45:14;;;;;;;12.75;6.45;;;;;;;22.45;63.52;100647.39;1784409;79;21362;-57
2021/07/11 00:48:19;;;;;;;9.10;6.55;;;;;;;22.40;63.71;100644.48;1774032;79;21212;-57
2021/07/11 00:51:26;;;;;;;8.03;6.08;;;;;;;22.38;63.88;100641.09;1809007;79;21828;-57
2021/07/11 00:54:31;;;;;;;9.43;6.22;;;;;;;22.31;64.04;100642.62;1810623;79;21725;-57
2021/07/11 00:57:38;;;;;;;10.13;6.90;;;;;;;22.23;64.31;100641.63;1811036;79;21370;-56
2021/07/11 01:00:46;;;;;;;9.95;6.40;;;;;;;22.20;64.37;100644.88;1811372;79;21165;-56
2021/07/11 01:03:57;;;;;;;13.38;6.90;;;;;;;22.14;64.53;100641.15;1811180;79;21228;-56
2021/07/11 01:07:04;;;;;;;13.13;6.92;;;;;;;22.09;64.32;100639.63;1810398;79;21351;-58
2021/07/11 01:10:18;;;;;;;15.03;6.55;;;;;;;22.06;64.51;100642.05;1806675;79;21200;-58
2021/07/11 01:13:28;;;;;;;12.78;7.10;;;;;;;22.03;64.53;100639.76;1809065;79;21196;-56
2021/07/11 01:16:37;;;;;;;13.30;6.55;;;;;;;22.03;64.55;100641.16;1810834;79;21318;-58
2021/07/11 01:20:04;;;;;;;13.85;7.08;;;;;;;21.99;64.71;100639.39;1811238;79;21192;-59
2021/07/11 01:23:16;;;;;;;10.28;7.03;;;;;;;21.99;65.13;100634.39;1809249;78;21228;-58
2021/07/11 01:26:22;;;;;;;11.53;6.12;;;;;;;21.98;65.53;100636.31;1811423;79;21406;-58
2021/07/11 01:29:31;;;;;;;13.40;6.60;;;;;;;21.98;65.36;100637.70;1810617;79;21370;-57
2021/07/11 01:32:36;;;;;;;10.30;7.30;;;;;;;21.97;65.40;100638.81;1811170;79;21339;-58
2021/07/11 01:35:42;;;;;;;9.63;5.97;;;;;;;21.98;65.55;100639.10;1797896;79;21383;-57
2021/07/11 01:38:51;;;;;;;9.20;7.05;;;;;;;21.94;65.62;100637.05;1767308;81;21320;-58
2021/07/11 01:42:01;;;;;;;10.60;6.33;;;;;;;21.91;66.08;100641.72;1768223;81;21382;-58
2021/07/11 01:45:06;;;;;;;13.32;6.60;;;;;;;21.86;66.40;100640.20;1768301;80;21342;-58
2021/07/11 01:48:14;;;;;;;17.70;7.42;;;;;;;21.78;66.63;100639.17;1769216;79;21946;-55
2021/07/11 01:51:19;;;;;;;10.58;6.85;;;;;;;21.73;67.03;100645.45;1783295;80;21808;-56
2021/07/11 01:54:24;;;;;;;14.95;6.90;;;;;;;21.70;67.08;100651.51;1783019;80;21378;-56
2021/07/11 01:57:30;;;;;;;12.07;6.50;;;;;;;21.71;67.01;100648.16;1782698;80;21293;-57
2021/07/11 02:00:35;;;;;;;12.50;7.28;;;;;;;21.70;66.62;100641.75;1782674;80;21204;-57
2021/07/11 02:03:41;;;;;;;11.15;6.37;;;;;;;21.70;66.26;100637.58;1783503;80;21409;-57
2021/07/11 02:06:47;;;;;;;11.20;6.00;;;;;;;21.70;65.98;100640.36;1763838;80;21201;-56
2021/07/11 02:09:52;;;;;;;9.45;6.85;;;;;;;21.72;66.06;100644.30;1783626;80;21343;-57
2021/07/11 02:13:10;;;;;;;9.53;6.53;;;;;;;21.72;65.83;100638.72;1783499;80;21354;-55
2021/07/11 02:16:21;;;;;;;10.18;6.83;;;;;;;21.66;65.84;100630.77;1783547;80;21354;-58
2021/07/11 02:19:29;;;;;;;9.18;6.45;;;;;;;21.65;65.90;100641.63;1783473;80;21330;-56
2021/07/11 02:22:35;;;;;;;11.12;6.72;;;;;;;21.63;65.98;100642.41;1783130;80;21891;-57
2021/07/11 02:25:41;;;;;;;15.43;6.65;;;;;;;21.63;66.10;100641.55;1783001;80;21342;-57
2021/07/11 02:28:46;;;;;;;9.38;6.35;;;;;;;21.60;66.39;100647.06;1783144;80;21390;-57
2021/07/11 02:31:52;;;;;;;9.00;6.53;;;;;;;21.60;66.70;100647.06;1763296;78;21338;-57
2021/07/11 02:34:58;;;;;;;11.30;6.67;;;;;;;21.60;66.54;100641.50;1814842;79;21836;-57
2021/07/11 02:38:04;;;;;;;11.00;7.28;;;;;;;21.58;66.58;100644.23;1814738;79;21220;-57
2021/07/11 02:41:10;;;;;;;12.28;6.45;;;;;;;21.56;67.00;100640.30;1770450;78;21710;-57
2021/07/11 02:44:18;;;;;;;12.18;7.28;;;;;;;21.60;67.24;100643.42;1815262;79;21357;-57
2021/07/11 02:47:29;;;;;;;15.55;7.50;;;;;;;21.64;67.23;100639.08;1814831;79;21208;-57
2021/07/11 02:50:36;;;;;;;16.12;8.03;;;;;;;21.67;67.31;100642.77;1814234;79;21205;-57
2021/07/11 02:53:43;;;;;;;12.73;7.72;;;;;;;21.68;67.33;100641.67;1815774;79;21363;-56
2021/07/11 02:56:49;;;;;;;13.05;7.50;;;;;;;21.71;67.27;100635.61;1815796;79;21338;-56
2021/07/11 02:59:55;;;;;;;11.48;7.00;;;;;;;21.79;67.19;100641.72;1815856;79;21566;-56
2021/07/11 03:03:04;;;;;;;9.83;6.60;;;;;;;21.84;67.08;100650.20;1815962;79;21362;-57
2021/07/11 03:06:12;;;;;;;11.50;6.60;;;;;;;21.89;67.11;100643.89;1796089;78;21211;-58
2021/07/11 03:09:20;;;;;;;11.20;7.12;;;;;;;21.93;66.97;100647.34;1796926;78;21204;-56
2021/07/11 03:12:25;;;;;;;9.73;7.85;;;;;;;21.99;66.63;100646.93;1815906;77;21474;-57
2021/07/11 03:15:33;;;;;;;12.03;7.50;;;;;;;22.04;66.61;100645.09;1815891;79;21188;-57
2021/07/11 03:18:46;;;;;;;10.98;7.10;;;;;;;22.07;66.53;100639.02;1815880;77;21359;-57
2021/07/11 03:21:49;;;;;;;10.90;7.67;;;;;;;22.13;66.55;100646.44;1815865;79;21365;-58
2021/07/11 03:24:55;;;;;;;11.03;7.95;;;;;;;22.20;66.53;100638.77;1815882;79;21405;-58
2021/07/11 03:28:06;;;;;;;11.35;7.70;;;;;;;22.26;66.24;100645.86;1815891;79;21220;-57
2021/07/11 03:31:14;;;;;;;12.15;7.97;;;;;;;22.34;66.12;100638.50;1815969;79;21342;-56
2021/07/11 03:34:19;;;;;;;9.33;7.87;;;;;;;22.41;66.16;100644.78;1795763;78;21208;-57
2021/07/11 03:37:29;;;;;;;10.10;7.92;;;;;;;22.47;66.06;100644.64;1815527;79;21295;-59
2021/07/11 03:40:38;;;;;;;11.78;8.35;;;;;;;22.54;65.84;100645.39;1815855;79;21346;-59
2021/07/11 03:43:44;;;;;;;10.05;7.83;;;;;;;22.59;65.75;100644.65;1816017;77;21358;-58
2021/07/11 03:46:50;;;;;;;10.70;8.28;;;;;;;22.65;65.62;100640.86;1815722;79;21357;-57
2021/07/11 03:49:57;;;;;;;12.20;8.70;;;;;;;22.71;65.56;100642.65;1815949;79;21346;-57
2021/07/11 03:53:12;;;;;;;11.10;8.73;;;;;;;22.76;65.39;100650.59;1795820;78;21346;-58
2021/07/11 03:56:17;;;;;;;12.13;7.83;;;;;;;22.79;65.54;100639.47;1815510;79;21322;-58
2021/07/11 03:59:23;;;;;;;9.90;8.43;;;;;;;22.87;65.54;100639.06;1815491;79;21820;-58
2021/07/11 04:02:32;;;;;;;12.50;9.78;;;;;;;22.97;65.58;100639.27;1815388;79;21346;-59
2021/07/11 04:05:37;;;;;;;16.67;10.23;;;;;;;23.07;65.25;100634.71;1815506;79;21389;-58
2021/07/11 04:08:44;;;;;;;14.80;8.58;;;;;;;23.14;65.11;100634.56;1779492;80;21374;-58
2021/07/11 04:11:52;;;;;;;12.58;9.53;;;;;;;23.18;65.46;100635.20;1815211;79;21601;-58
2021/07/11 04:14:59;;;;;;;15.38;9.20;;;;;;;23.19;65.66;100629.07;1815886;79;21251;-57
2021/07/11 04:18:08;;;;;;;17.17;9.93;;;;;;;23.23;65.90;100628.31;1815825;77;21351;-56
2021/07/11 04:21:15;;;;;;;23.62;12.23;;;;;;;23.35;66.01;100631.07;1815934;79;21341;-56
2021/07/11 04:24:20;;;;;;;22.65;12.20;;;;;;;23.44;65.09;100626.20;1779622;80;21208;-59
2021/07/11 04:27:30;;;;;;;15.68;10.38;;;;;;;23.53;64.87;100628.86;1816063;78;21342;-57
2021/07/11 04:30:36;;;;;;;13.48;8.85;;;;;;;23.65;64.92;100631.58;1779534;80;21209;-56
2021/07/11 04:33:41;;;;;;;11.57;8.13;;;;;;;23.76;64.38;100633.97;1815696;77;21354;-57
2021/07/11 04:36:46;;;;;;;11.53;8.58;;;;;;;23.78;63.96;100627.04;1815794;79;21397;-58
2021/07/11 04:39:53;;;;;;;11.18;8.58;;;;;;;23.80;63.71;100629.01;1816026;79;21327;-59
2021/07/11 04:43:01;;;;;;;13.95;8.53;;;;;;;23.87;63.81;100635.83;1815315;77;21389;-58
2021/07/11 04:46:06;;;;;;;13.30;9.05;;;;;;;23.97;63.59;100635.48;1815308;79;21697;-58
2021/07/11 04:49:14;;;;;;;12.03;8.80;;;;;;;24.09;63.65;100629.75;1815301;79;21342;-57
2021/07/11 04:52:19;;;;;;;12.40;8.80;;;;;;;24.22;63.83;100626.05;1810300;79;21919;-57
2021/07/11 04:55:24;;;;;;;13.45;8.35;;;;;;;24.38;63.68;100626.55;1809258;79;21382;-59
2021/07/11 04:58:29;;;;;;;10.82;8.65;;;;;;;24.54;63.01;100617.78;1791750;79;21852;-58
2021/07/11 05:01:36;;;;;;;12.00;8.45;;;;;;;24.64;62.26;100618.73;1808855;79;21891;-57
2021/07/11 05:04:41;;;;;;;11.55;8.18;;;;;;;24.76;62.11;100628.44;1809465;79;21338;-58
2021/07/11 05:07:48;;;;;;;10.48;7.80;;;;;;;24.88;61.46;100636.13;1808806;77;21904;-58
2021/07/11 05:10:54;;;;;;;11.38;7.80;;;;;;;25.04;60.53;100622.58;1809306;79;21346;-58
2021/07/11 05:14:00;;;;;;;9.25;8.10;;;;;;;25.15;59.31;100622.97;1809100;79;21276;-58
2021/07/11 05:17:06;;;;;;;10.58;7.10;;;;;;;25.26;58.94;100630.94;1808914;79;21248;-59
2021/07/11 05:20:18;;;;;;;8.63;7.58;;;;;;;25.37;59.28;100625.75;1809492;79;21205;-59
2021/07/11 05:23:25;;;;;;;9.70;7.35;;;;;;;25.53;58.10;100624.77;1809570;77;21381;-59
2021/07/11 05:26:34;;;;;;;11.90;8.23;;;;;;;25.70;57.45;100636.68;1808977;79;21367;-58
2021/07/11 05:29:41;;;;;;;8.48;7.50;;;;;;;25.84;56.53;100622.48;1808063;79;21899;-59
2021/07/11 05:32:46;;;;;;;9.75;7.87;;;;;;;25.98;56.29;100626.50;1808215;79;21212;-59
2021/07/11 05:35:53;;;;;;;9.35;7.97;;;;;;;26.12;56.29;100625.78;1808235;79;21189;-58
2021/07/11 05:38:59;;;;;;;10.85;8.40;;;;;;;26.27;56.12;100626.43;1807796;79;21377;-58
2021/07/11 05:42:06;;;;;;;17.45;9.05;;;;;;;26.39;55.98;100629.84;1808252;79;21351;-58
2021/07/11 05:45:16;;;;;;;10.28;9.20;;;;;;;26.50;56.24;100631.59;1808729;79;21965;-58
2021/07/11 05:48:22;;;;;;;13.05;9.03;;;;;;;26.59;55.73;100629.96;1792405;79;21899;-58
2021/07/11 05:51:27;;;;;;;14.50;9.43;;;;;;;26.66;55.45;100629.16;1807895;79;21729;-58
2021/07/11 05:54:34;;;;;;;10.40;8.95;;;;;;;26.73;55.65;100623.29;1810131;79;21296;-58
2021/07/11 05:57:40;;;;;;;15.50;9.00;;;;;;;26.78;55.48;100621.36;1815237;79;21725;-58
2021/07/11 06:00:48;;;;;;;15.50;8.93;;;;;;;26.88;56.02;100629.80;1783172;79;21363;-58
2021/07/11 06:03:53;;;;;;;11.57;8.88;;;;;;;26.96;56.01;100626.45;1748406;81;21219;-59
2021/07/11 06:06:59;;;;;;;9.93;8.80;;;;;;;27.06;55.65;100624.22;1800257;79;21757;-58
2021/07/11 06:10:04;;;;;;;11.28;8.80;;;;;;;27.13;54.42;100621.41;1815600;79;21898;-59
2021/07/11 06:13:09;;;;;;;13.68;8.70;;;;;;;27.22;54.87;100621.17;1815434;79;21204;-59
2021/07/11 06:16:17;;;;;;;13.53;9.05;;;;;;;27.30;54.85;100616.98;1815537;79;21389;-59
2021/07/11 06:19:31;;;;;;;12.45;8.78;;;;;;;27.50;54.63;100615.03;1858014;76;22206;-57
2021/07/11 06:22:37;;;;;;;11.18;8.70;;;;;;;27.49;54.56;100618.97;1736380;81;21405;-59
2021/07/11 06:25:45;;;;;;;17.55;9.08;;;;;;;27.57;54.13;100610.53;1772684;80;21340;-58
2021/07/11 06:28:53;;;;;;;11.85;8.08;;;;;;;27.66;53.78;100610.23;1773182;80;21343;-58
2021/07/11 06:31:59;;;;;;;9.53;7.85;;;;;;;27.72;53.82;100602.91;1772142;80;21201;-59
2021/07/11 06:35:06;;;;;;;11.70;8.60;;;;;;;27.83;53.79;100602.33;1769832;80;21327;-57
2021/07/11 06:38:13;;;;;;;11.05;8.65;;;;;;;27.91;54.11;100603.19;1771180;80;21920;-58
2021/07/11 06:41:21;;;;;;;15.72;8.10;;;;;;;28.01;54.67;100607.95;1771142;80;21342;-59
2021/07/11 06:44:27;;;;;;;12.80;8.15;;;;;;;28.07;53.50;100599.81;1771385;81;21316;-59
2021/07/11 06:47:34;;;;;;;12.85;8.28;;;;;;;28.12;53.20;100599.21;1771216;80;21194;-58
2021/07/11 06:50:43;;;;;;;11.25;7.90;;;;;;;28.21;53.73;100604.52;1762314;80;21872;-58
2021/07/11 06:53:49;;;;;;;12.10;8.10;;;;;;;28.30;53.50;100596.34;1773222;80;21844;-58
2021/07/11 06:56:55;;;;;;;14.13;7.22;;;;;;;28.38;51.91;100598.56;1771675;80;21339;-57
2021/07/11 07:00:01;;;;;;;14.43;7.87;;;;;;;28.46;51.72;100595.16;1771316;80;21264;-58
2021/07/11 07:03:08;;;;;;;10.75;7.35;;;;;;;28.55;51.32;100592.89;1771387;80;21923;-58
2021/07/11 07:06:16;;;;;;;9.00;6.55;;;;;;;28.61;51.24;100599.33;1771437;80;21308;-59
2021/07/11 07:09:23;;;;;;;9.25;7.05;;;;;;;28.70;51.52;100598.44;1771249;80;21414;-59
2021/07/11 07:12:27;;;;;;;9.45;7.03;;;;;;;28.82;51.11;100602.33;1770528;80;21265;-59
2021/07/11 07:15:33;;;;;;;9.90;7.80;;;;;;;28.92;50.91;100595.23;1771471;80;21347;-59
2021/07/11 07:18:39;;;;;;;10.90;7.40;;;;;;;29.02;50.20;100588.09;1769208;79;21217;-60
2021/07/11 07:21:47;;;;;;;10.75;7.40;;;;;;;29.11;50.33;100592.86;1771447;80;21181;-57
2021/07/11 07:24:53;;;;;;;10.82;7.80;;;;;;;29.19;49.32;100603.52;1771638;80;21190;-60
2021/07/11 07:28:01;;;;;;;10.98;7.42;;;;;;;29.27;48.21;100602.08;1771486;80;21363;-58
2021/07/11 07:31:11;;;;;;;10.65;8.00;;;;;;;29.32;47.20;100600.60;1770582;80;21236;-58
2021/07/11 07:34:18;;;;;;;11.78;7.87;;;;;;;29.36;47.52;100601.72;1770626;81;21259;-57
2021/07/11 07:37:27;;;;;;;9.88;7.95;;;;;;;29.41;46.58;100607.88;1771142;80;21193;-56
2021/07/11 07:40:31;;;;;;;9.75;8.53;;;;;;;29.46;45.78;100608.70;1770796;81;21202;-57
2021/07/11 07:43:38;;;;;;;12.35;7.92;;;;;;;29.53;45.77;100610.59;1770758;81;21761;-59
2021/07/11 07:46:45;;;;;;;8.10;7.17;;;;;;;29.61;46.19;100616.17;1770072;81;21187;-58
2021/07/11 07:49:51;;;;;;;11.65;7.85;;;;;;;29.67;46.04;100611.63;1770082;81;21212;-59
2021/07/11 07:52:59;;;;;;;11.33;7.33;;;;;;;29.76;43.99;100609.87;1770354;81;21241;-58
2021/07/11 07:56:06;;;;;;;10.65;7.45;;;;;;;29.81;43.68;100609.80;1770854;80;21220;-59
2021/07/11 07:59:14;;;;;;;11.25;7.22;;;;;;;29.88;45.02;100604.66;1770641;80;21792;-58
2021/07/11 08:02:20;;;;;;;13.38;8.38;;;;;;;29.94;42.52;100600.64;1770877;80;21320;-59
2021/07/11 08:05:27;;;;;;;9.23;8.33;;;;;;;29.99;43.69;100602.56;1770740;80;21196;-58
2021/07/11 08:08:33;;;;;;;8.53;7.65;;;;;;;30.05;44.43;100603.63;1771152;80;21212;-59
2021/07/11 08:11:41;;;;;;;15.00;8.15;;;;;;;30.12;43.98;100599.05;1771284;80;21202;-58
2021/07/11 08:14:51;;;;;;;11.53;7.25;;;;;;;30.22;43.92;100600.38;1771031;79;21280;-57
2021/07/11 08:17:57;;;;;;;11.38;7.70;;;;;;;30.31;43.45;100598.58;1771034;80;21285;-58
2021/07/11 08:21:03;;;;;;;9.20;8.08;;;;;;;30.36;43.25;100595.12;1770071;80;21213;-59
2021/07/11 08:24:12;;;;;;;15.00;7.20;;;;;;;30.46;43.25;100592.75;1770777;81;21251;-58
2021/07/11 08:27:19;;;;;;;10.90;7.62;;;;;;;30.65;43.61;100585.16;1770833;80;21279;-59
2021/07/11 08:30:26;;;;;;;8.73;7.35;;;;;;;30.65;43.61;100585.16;1771377;80;21193;-58
2021/07/11 08:33:33;;;;;;;8.60;7.08;;;;;;;30.73;43.11;100585.89;1770614;81;21193;-58
2021/07/11 08:36:39;;;;;;;11.45;6.95;;;;;;;30.84;43.23;100591.70;1770737;80;21248;-59
2021/07/11 08:39:47;;;;;;;10.40;7.30;;;;;;;30.95;42.83;100583.91;1770590;80;21209;-59
2021/07/11 08:43:03;;;;;;;9.50;6.22;;;;;;;31.06;42.75;100591.09;1771594;80;21228;-58
2021/07/11 08:46:12;;;;;;;8.15;6.78;;;;;;;31.14;41.58;100588.98;1770913;80;21762;-59
2021/07/11 08:49:20;;;;;;;8.85;5.83;;;;;;;31.20;39.84;100588.61;1734751;80;21193;-59
2021/07/11 08:52:27;;;;;;;11.30;6.17;;;;;;;31.26;40.13;100585.11;1770712;80;21213;-60
2021/07/11 08:55:35;;;;;;;8.35;6.15;;;;;;;31.40;40.03;100581.23;1770740;80;21824;-59
2021/07/11 08:58:42;;;;;;;8.43;6.00;;;;;;;31.53;39.30;100575.34;1770633;80;21264;-60
2021/07/11 09:01:51;;;;;;;6.42;5.58;;;;;;;31.66;38.68;100577.38;1771284;80;21213;-61
2021/07/11 09:04:56;;;;;;;7.00;5.20;;;;;;;31.78;38.82;100577.72;1776321;80;21871;-60
2021/07/11 09:08:25;;;;;;;11.05;5.85;;;;;;;31.89;38.26;100571.59;1787719;80;21366;-59
2021/07/11 09:11:31;;;;;;;7.87;5.62;;;;;;;32.02;38.66;100571.95;1788409;79;21343;-57
2021/07/11 09:14:46;;;;;;;8.15;5.45;;;;;;;32.14;38.85;100575.09;1788274;80;21315;-58
2021/07/11 09:18:02;;;;;;;10.50;6.03;;;;;;;32.22;38.49;100571.53;1788267;80;21219;-58
2021/07/11 09:21:14;;;;;;;7.90;5.37;;;;;;;32.30;37.62;100567.38;1789239;78;21342;-58
2021/07/11 09:24:22;;;;;;;9.63;5.30;;;;;;;32.23;36.06;100568.39;1788735;80;21840;-59
2021/07/11 09:27:30;;;;;;;9.08;5.22;;;;;;;32.03;35.97;100567.95;1788554;80;21208;-58
2021/07/11 09:30:36;;;;;;;8.03;5.55;;;;;;;31.95;35.59;100559.01;1788569;80;21724;-59
2021/07/11 09:33:55;;;;;;;8.18;4.80;;;;;;;31.96;35.83;100560.71;1788839;80;21405;-58
2021/07/11 09:37:20;;;;;;;9.75;5.03;;;;;;;32.02;35.94;100565.69;1788702;80;21358;-59
2021/07/11 09:40:27;;;;;;;6.58;4.90;;;;;;;31.89;35.56;100564.52;1780133;80;21215;-59
2021/07/11 09:43:32;;;;;;;7.28;4.67;;;;;;;31.70;36.16;100565.69;1788075;80;21844;-60
2021/07/11 09:46:42;;;;;;;10.38;5.35;;;;;;;31.51;35.44;100560.65;1788121;80;21855;-59
2021/07/11 09:49:47;;;;;;;12.23;5.25;;;;;;;31.35;35.05;100559.26;1788351;80;21867;-59
2021/07/11 09:53:01;;;;;;;6.65;4.97;;;;;;;31.32;36.00;100555.04;1788274;80;21350;-58
2021/07/11 09:56:08;;;;;;;11.03;5.17;;;;;;;31.41;35.74;100555.19;1788557;80;21204;-57
2021/07/11 09:59:18;;;;;;;8.00;5.28;;;;;;;31.53;35.92;100559.21;1788536;80;21196;-59
2021/07/11 10:02:27;;;;;;;6.58;4.45;;;;;;;31.65;35.92;100564.39;1788729;80;21393;-57
2021/07/11 10:05:35;;;;;;;8.88;5.00;;;;;;;31.81;36.17;100556.70;1788478;80;21398;-58
2021/07/11 10:08:41;;;;;;;6.40;4.60;;;;;;;31.99;35.55;100555.83;1788368;80;21381;-58
2021/07/11 10:11:48;;;;;;;6.65;4.72;;;;;;;32.16;35.35;100555.20;1788429;80;21331;-58
2021/07/11 10:15:00;;;;;;;7.20;5.03;;;;;;;32.25;32.99;100549.08;1788297;80;21823;-58
2021/07/11 10:18:17;;;;;;;5.72;4.95;;;;;;;32.30;33.95;100558.87;1788537;80;21879;-58
2021/07/11 10:21:26;;;;;;;8.68;5.83;;;;;;;32.21;33.44;100558.50;1777692;80;21741;-59
2021/07/11 10:24:32;;;;;;;8.10;4.92;;;;;;;32.07;33.18;100562.76;1763888;80;21197;-59
2021/07/11 10:27:40;;;;;;;9.88;4.97;;;;;;;32.02;33.34;100555.77;1771208;80;21324;-59
2021/07/11 10:30:53;;;;;;;16.50;5.22;;;;;;;32.09;34.14;100539.77;1770767;81;21190;-59
2021/07/11 10:34:02;;;;;;;8.00;5.25;;;;;;;32.25;33.96;100547.66;1771019;80;21161;-59
2021/07/11 10:37:22;;;;;;;7.53;4.85;;;;;;;32.25;33.53;100543.41;1735116;82;21713;-58
2021/07/11 10:40:33;;;;;;;27.48;21.20;;;;;;;32.25;34.64;100547.66;1735187;82;21160;-59
2021/07/11 10:43:42;;;;;;;25.55;16.75;;;;;;;32.35;34.68;100547.43;1721484;83;21281;-59
2021/07/11 10:47:00;;;;;;;17.75;11.70;;;;;;;32.50;33.89;100542.90;1721380;83;21213;-58
2021/07/11 10:50:07;;;;;;;8.15;5.25;;;;;;;32.69;34.23;100545.02;1721448;83;21406;-58
2021/07/11 10:53:29;;;;;;;6.35;5.42;;;;;;;32.95;33.03;100544.71;1735355;82;21196;-58
2021/07/11 10:56:32;;;;;;;8.78;5.95;;;;;;;33.12;33.14;100534.95;1735587;82;21359;-59
2021/07/11 10:59:49;;;;;;;10.75;7.37;;;;;;;33.33;32.32;100535.28;1722170;83;21347;-58
2021/07/11 11:02:59;;;;;;;13.20;7.85;;;;;;;33.38;31.17;100533.14;1735666;81;21239;-58
2021/07/11 11:06:08;;;;;;;9.30;5.53;;;;;;;33.45;30.98;100535.55;1722115;83;21321;-58
2021/07/11 11:09:16;;;;;;;7.15;5.37;;;;;;;33.51;32.10;100531.41;1717750;82;21334;-58
2021/07/11 11:12:28;;;;;;;8.23;5.00;;;;;;;33.67;32.29;100534.69;1721932;83;21857;-58
2021/07/11 11:15:58;;;;;;;6.95;5.25;;;;;;;33.73;31.79;100534.83;1735623;82;21776;-58
2021/07/11 11:19:05;;;;;;;7.62;5.28;;;;;;;33.67;32.86;100536.10;1721787;83;21281;-58
2021/07/11 11:22:16;;;;;;;8.75;5.17;;;;;;;33.46;32.69;100533.56;1735599;81;21168;-58
2021/07/11 11:25:29;;;;;;;7.28;5.10;;;;;;;33.35;32.43;100530.95;1726782;83;21224;-59
2021/07/11 11:28:47;;;;;;;10.85;5.60;;;;;;;33.40;31.78;100519.25;1735587;81;21302;-59
2021/07/11 11:31:56;;;;;;;7.05;5.08;;;;;;;33.32;32.45;100520.23;1762213;80;21815;-58
2021/07/11 11:35:02;;;;;;;8.68;5.00;;;;;;;33.26;32.76;100517.28;1765010;81;21347;-58
2021/07/11 11:38:12;;;;;;;10.00;5.25;;;;;;;33.25;32.60;100524.09;1772402;81;21244;-58
2021/07/11 11:41:22;;;;;;;7.03;4.70;;;;;;;33.34;32.40;100510.83;1773015;80;21378;-58
2021/07/11 11:44:31;;;;;;;5.60;4.90;;;;;;;33.52;32.67;100520.91;1772473;81;21343;-58
2021/07/11 11:47:38;;;;;;;8.00;4.90;;;;;;;33.67;30.82;100502.87;1772646;80;21796;-58
2021/07/11 11:50:48;;;;;;;7.12;5.05;;;;;;;33.90;31.55;100513.64;1790625;80;21342;-58
2021/07/11 11:53:56;;;;;;;10.43;4.92;;;;;;;34.09;32.11;100504.27;1788137;80;21185;-58
2021/07/11 11:57:06;;;;;;;7.95;5.85;;;;;;;34.20;31.46;100501.39;1790879;80;21756;-57
2021/07/11 12:00:16;;;;;;;6.12;5.28;;;;;;;34.12;30.62;100499.34;1781096;80;21825;-57
2021/07/11 12:03:21;;;;;;;6.78;4.83;;;;;;;33.89;31.26;100503.38;1772541;80;21418;-58
2021/07/11 12:06:30;;;;;;;7.95;5.10;;;;;;;33.59;30.96;100497.97;1772573;80;21848;-58
2021/07/11 12:09:38;;;;;;;8.15;5.17;;;;;;;33.28;31.09;100497.91;1772650;80;21363;-59
2021/07/11 12:12:44;;;;;;;14.38;6.28;;;;;;;33.03;31.60;100495.71;1772620;80;21383;-58
2021/07/11 12:15:52;;;;;;;6.25;5.25;;;;;;;32.93;31.76;100490.31;1772447;80;21312;-57
2021/07/11 12:19:00;;;;;;;9.43;5.22;;;;;;;33.03;32.89;100488.62;1772532;80;21480;-58
2021/07/11 12:22:09;;;;;;;8.10;5.37;;;;;;;33.17;32.27;100485.13;1772430;80;21252;-58
2021/07/11 12:25:31;;;;;;;8.40;5.45;;;;;;;33.30;31.82;100482.81;1770171;79;21347;-58
2021/07/11 12:28:29;;;;;;;5.90;5.17;;;;;;;33.32;31.06;100488.16;1770938;81;21220;-58
2021/07/11 12:31:36;;;;;;;8.85;5.33;;;;;;;33.32;30.64;100487.59;1770723;81;21213;-58
2021/07/11 12:34:42;;;;;;;7.45;4.67;;;;;;;33.26;29.30;100478.95;1763948;81;21831;-58
2021/07/11 12:37:59;;;;;;;8.75;5.60;;;;;;;33.23;30.80;100473.93;1770896;81;21244;-59
2021/07/11 12:41:07;;;;;;;7.15;5.47;;;;;;;33.28;30.60;100472.35;1770626;81;21272;-58
2021/07/11 12:44:16;;;;;;;6.00;5.40;;;;;;;33.35;30.86;100474.17;1770810;81;21488;-58
2021/07/11 12:47:23;;;;;;;8.05;4.95;;;;;;;33.36;31.19;100475.83;1764179;81;21174;-59
2021/07/11 12:50:46;;;;;;;5.67;5.00;;;;;;;33.37;31.42;100474.69;1770891;80;21182;-58
2021/07/11 12:53:59;;;;;;;9.80;4.70;;;;;;;33.42;30.71;100461.54;1771132;80;21260;-58
2021/07/11 12:57:08;;;;;;;5.67;4.25;;;;;;;33.47;30.23;100459.98;1770674;81;21435;-59
2021/07/11 13:00:17;;;;;;;8.75;5.10;;;;;;;33.52;30.44;100459.85;1770694;81;21260;-59
2021/07/11 13:03:22;;;;;;;7.25;5.20;;;;;;;33.47;30.68;100463.67;1745364;81;21196;-58
2021/07/11 13:06:27;;;;;;;8.28;5.53;;;;;;;33.46;30.41;100461.98;1763990;81;21290;-60
2021/07/11 13:09:32;;;;;;;9.55;5.90;;;;;;;33.48;30.49;100458.81;1763683;81;21837;-59
2021/07/11 13:12:38;;;;;;;8.40;4.97;;;;;;;33.46;30.13;100455.48;1739953;82;21224;-57
2021/07/11 13:15:47;;;;;;;6.50;5.05;;;;;;;33.42;30.50;100452.45;1739908;82;21221;-58
2021/07/11 13:18:54;;;;;;;7.15;5.78;;;;;;;33.41;30.36;100449.94;1740124;82;21208;-57
2021/07/11 13:22:00;;;;;;;7.22;4.65;;;;;;;33.26;29.73;100449.16;1739641;82;21256;-58
2021/07/11 13:25:06;;;;;;;10.35;5.70;;;;;;;33.20;29.67;100465.22;1739177;82;21215;-58
2021/07/11 13:28:12;;;;;;;8.55;5.20;;;;;;;33.17;28.90;100455.94;1691569;85;21318;-58
2021/07/11 13:31:23;;;;;;;7.72;5.28;;;;;;;33.17;29.20;100454.52;1691722;85;21204;-59
2021/07/11 13:34:30;;;;;;;6.45;5.30;;;;;;;33.18;29.23;100455.61;1691946;85;21723;-59
2021/07/11 13:37:38;;;;;;;11.90;5.78;;;;;;;33.18;29.43;100460.44;1691709;85;21279;-57
2021/07/11 13:40:46;;;;;;;7.37;5.08;;;;;;;33.18;29.44;100455.61;1692090;85;21732;-58
2021/07/11 13:43:56;;;;;;;7.37;4.90;;;;;;;33.25;29.94;100461.65;1691909;85;21611;-59
2021/07/11 13:47:01;;;;;;;6.53;4.50;;;;;;;33.31;29.82;100449.02;1703097;83;21220;-59
2021/07/11 13:50:15;;;;;;;7.12;4.78;;;;;;;33.36;29.24;100442.37;1720759;83;21228;-59
2021/07/11 13:53:20;;;;;;;11.10;5.53;;;;;;;33.41;28.78;100452.78;1719298;83;21310;-58
2021/07/11 13:56:25;;;;;;;5.30;4.70;;;;;;;33.40;28.74;100445.43;1720540;83;21232;-60
2021/07/11 13:59:32;;;;;;;7.20;4.97;;;;;;;33.42;29.18;100449.61;1715034;83;21827;-58
2021/07/11 14:02:37;;;;;;;10.08;5.28;;;;;;;33.44;29.33;100442.19;1720872;83;21203;-58
2021/07/11 14:05:45;;;;;;;7.83;5.30;;;;;;;33.48;29.36;100446.03;1719691;83;21799;-59
2021/07/11 14:08:52;;;;;;;7.90;5.40;;;;;;;33.44;28.11;100448.71;1720551;83;21241;-58
2021/07/11 14:11:59;;;;;;;7.37;4.90;;;;;;;33.38;28.27;100441.44;1720790;82;21224;-58
2021/07/11 14:15:06;;;;;;;7.60;4.90;;;;;;;33.37;28.66;100443.46;1720756;83;21251;-58
2021/07/11 14:18:16;;;;;;;7.65;5.37;;;;;;;33.38;29.06;100443.70;1720542;83;21299;-58
2021/07/11 14:21:24;;;;;;;7.65;5.25;;;;;;;33.35;28.43;100444.92;1720455;83;21185;-59
2021/07/11 14:24:29;;;;;;;6.67;5.05;;;;;;;33.32;28.88;100441.33;1720489;83;22003;-59
2021/07/11 14:27:36;;;;;;;9.23;4.85;;;;;;;33.29;29.03;100435.73;1746418;80;21838;-59
2021/07/11 14:30:44;;;;;;;8.45;4.78;;;;;;;33.27;29.19;100439.47;1770695;80;21157;-59